createdAt,value
2017-06-26T00:00:56.933Z,1005.1
2017-06-26T00:01:58.836Z,1005.1
2017-06-26T00:03:00.723Z,1005.1
2017-06-26T00:04:02.793Z,1005.1
2017-06-26T00:05:04.616Z,1005.1
2017-06-26T00:06:06.441Z,1005.1
2017-06-26T00:07:08.207Z,1005.1
2017-06-26T00:08:10.085Z,1005.1
2017-06-26T00:09:11.820Z,1005.1
2017-06-26T00:10:13.984Z,1005.1
2017-06-26T00:11:15.753Z,1005.1
2017-06-26T00:12:17.593Z,1005.1
2017-06-26T00:13:19.333Z,1005.1
2017-06-26T00:14:21.128Z,1005.1
2017-06-26T00:15:22.863Z,1005.0
2017-06-26T00:16:25.709Z,1005.0
2017-06-26T00:17:27.463Z,1005.1
2017-06-26T00:18:29.265Z,1005.0
2017-06-26T00:19:31.052Z,1005.0
2017-06-26T00:20:32.835Z,1005.0
2017-06-26T00:21:34.591Z,1005.0
2017-06-26T00:22:36.467Z,1005.0
2017-06-26T00:23:38.514Z,1004.9
2017-06-26T00:24:40.309Z,1005.0
2017-06-26T00:25:42.025Z,1005.0
2017-06-26T00:26:43.826Z,1005.0
2017-06-26T00:27:45.559Z,1005.0
2017-06-26T00:28:47.324Z,1005.0
2017-06-26T00:29:49.045Z,1004.9
2017-06-26T00:30:50.804Z,1004.9
2017-06-26T00:31:52.544Z,1005.0
2017-06-26T00:32:54.428Z,1005.0
2017-06-26T00:33:56.172Z,1005.0
2017-06-26T00:34:57.998Z,1005.0
2017-06-26T00:35:59.774Z,1005.0
2017-06-26T00:37:01.580Z,1005.0
2017-06-26T00:38:03.252Z,1005.0
2017-06-26T00:39:05.102Z,1005.1
2017-06-26T00:40:06.846Z,1005.0
2017-06-26T00:41:08.610Z,1005.0
2017-06-26T00:42:10.359Z,1005.1
2017-06-26T00:43:12.212Z,1005.0
2017-06-26T00:44:13.959Z,1005.1
2017-06-26T00:45:15.778Z,1005.0
2017-06-26T00:46:17.556Z,1005.1
2017-06-26T00:47:19.387Z,1005.1
2017-06-26T00:48:21.125Z,1005.1
2017-06-26T00:49:23.009Z,1005.1
2017-06-26T00:50:24.773Z,1005.0
2017-06-26T00:51:26.619Z,1005.1
2017-06-26T00:52:28.378Z,1005.1
2017-06-26T00:53:30.150Z,1005.0
2017-06-26T00:54:31.912Z,1005.1
2017-06-26T00:55:33.855Z,1005.1
2017-06-26T00:56:35.608Z,1005.0
2017-06-26T00:57:37.405Z,1005.1
2017-06-26T00:58:39.155Z,1005.1
2017-06-26T00:59:41.013Z,1005.1
2017-06-26T01:00:42.809Z,1005.1
2017-06-26T01:01:44.586Z,1005.1
2017-06-26T01:02:46.757Z,1005.2
2017-06-26T01:03:48.586Z,1005.2
2017-06-26T01:04:50.328Z,1005.2
2017-06-26T01:05:52.277Z,1005.2
2017-06-26T01:06:54.015Z,1005.2
2017-06-26T01:07:55.885Z,1005.2
2017-06-26T01:08:57.619Z,1005.2
2017-06-26T01:09:59.454Z,1005.2
2017-06-26T01:11:01.204Z,1005.2
2017-06-26T01:12:03.984Z,1005.2
2017-06-26T01:13:05.789Z,1005.2
2017-06-26T01:14:07.602Z,1005.2
2017-06-26T01:15:09.343Z,1005.1
2017-06-26T01:16:11.201Z,1005.2
2017-06-26T01:17:12.915Z,1005.1
2017-06-26T01:18:14.810Z,1005.1
2017-06-26T01:19:16.576Z,1005.1
2017-06-26T01:20:18.368Z,1005.1
2017-06-26T01:21:20.088Z,1005.1
2017-06-26T01:22:21.905Z,1005.1
2017-06-26T01:23:23.723Z,1005.1
2017-06-26T01:24:25.506Z,1005.1
2017-06-26T01:25:27.246Z,1005.1
2017-06-26T01:26:30.092Z,1005.1
2017-06-26T01:27:31.803Z,1005.1
2017-06-26T01:28:33.584Z,1005.1
2017-06-26T01:29:35.284Z,1005.0
2017-06-26T01:30:38.092Z,1005.0
2017-06-26T01:31:39.851Z,1005.1
2017-06-26T01:32:41.703Z,1005.1
2017-06-26T01:33:43.425Z,1005.1
2017-06-26T01:34:45.175Z,1005.1
2017-06-26T01:35:46.974Z,1005.1
2017-06-26T01:36:48.768Z,1005.2
2017-06-26T01:37:50.519Z,1005.1
2017-06-26T01:38:52.311Z,1005.1
2017-06-26T01:39:54.036Z,1005.1
2017-06-26T01:40:55.883Z,1005.1
2017-06-26T01:41:57.643Z,1005.1
2017-06-26T01:43:00.429Z,1005.1
2017-06-26T01:44:02.186Z,1005.0
2017-06-26T01:45:03.982Z,1005.1
2017-06-26T01:46:05.706Z,1005.1
2017-06-26T01:47:08.505Z,1005.0
2017-06-26T01:48:10.189Z,1005.0
2017-06-26T01:49:12.027Z,1005.0
2017-06-26T01:50:13.834Z,1005.0
2017-06-26T01:51:16.652Z,1005.0
2017-06-26T01:52:18.424Z,1005.0
2017-06-26T01:53:20.605Z,1005.0
2017-06-26T01:54:22.349Z,1005.0
2017-06-26T01:55:24.129Z,1005.0
2017-06-26T01:56:25.940Z,1005.0
2017-06-26T01:57:27.748Z,1005.0
2017-06-26T01:58:29.526Z,1005.0
2017-06-26T01:59:31.286Z,1005.0
2017-06-26T02:00:33.025Z,1005.0
2017-06-26T02:01:34.886Z,1005.0
2017-06-26T02:02:36.579Z,1005.0
2017-06-26T02:03:38.406Z,1005.0
2017-06-26T02:04:40.159Z,1005.0
2017-06-26T02:05:42.920Z,1005.0
2017-06-26T02:06:44.663Z,1004.9
2017-06-26T02:07:46.468Z,1005.0
2017-06-26T02:08:48.242Z,1005.0
2017-06-26T02:09:52.065Z,1005.0
2017-06-26T02:10:53.824Z,1005.0
2017-06-26T02:11:55.621Z,1005.0
2017-06-26T02:12:57.765Z,1005.0
2017-06-26T02:14:01.550Z,1005.0
2017-06-26T02:15:03.309Z,1005.0
2017-06-26T02:16:05.038Z,1005.0
2017-06-26T02:17:06.794Z,1005.1
2017-06-26T02:18:08.540Z,1005.0
2017-06-26T02:19:10.341Z,1005.0
2017-06-26T02:20:12.100Z,1005.0
2017-06-26T02:21:13.812Z,1005.0
2017-06-26T02:22:15.584Z,1005.0
2017-06-26T02:23:17.357Z,1005.0
2017-06-26T02:24:19.220Z,1005.0
2017-06-26T02:25:20.998Z,1005.0
2017-06-26T02:26:22.895Z,1005.0
2017-06-26T02:27:24.663Z,1005.0
2017-06-26T02:28:26.390Z,1004.9
2017-06-26T02:29:28.193Z,1004.9
2017-06-26T02:30:30.096Z,1004.9
2017-06-26T02:31:31.765Z,1004.9
2017-06-26T02:32:33.577Z,1005.0
2017-06-26T02:33:35.318Z,1005.0
2017-06-26T02:34:37.487Z,1005.0
2017-06-26T02:35:39.180Z,1005.0
2017-06-26T02:36:40.931Z,1005.0
2017-06-26T02:37:42.701Z,1005.0
2017-06-26T02:38:44.892Z,1005.0
2017-06-26T02:39:46.640Z,1005.0
2017-06-26T02:40:49.522Z,1005.0
2017-06-26T02:41:51.696Z,1005.0
2017-06-26T02:42:53.489Z,1005.0
2017-06-26T02:43:55.166Z,1005.0
2017-06-26T02:44:56.999Z,1005.0
2017-06-26T02:45:58.784Z,1005.0
2017-06-26T02:47:00.512Z,1005.1
2017-06-26T02:48:02.295Z,1005.0
2017-06-26T02:49:04.089Z,1005.0
2017-06-26T02:50:05.785Z,1005.0
2017-06-26T02:51:07.660Z,1005.0
2017-06-26T02:52:09.450Z,1005.0
2017-06-26T02:53:11.324Z,1005.1
2017-06-26T02:54:13.079Z,1005.1
2017-06-26T02:55:14.903Z,1005.0
2017-06-26T02:56:16.666Z,1005.0
2017-06-26T02:57:18.872Z,1005.0
2017-06-26T02:58:20.677Z,1004.9
2017-06-26T02:59:22.514Z,1004.9
2017-06-26T03:00:24.249Z,1005.0
2017-06-26T03:01:26.133Z,1005.0
2017-06-26T03:02:27.897Z,1005.0
2017-06-26T03:03:30.717Z,1005.0
2017-06-26T03:04:32.398Z,1005.0
2017-06-26T03:05:34.199Z,1005.1
2017-06-26T03:06:35.988Z,1005.0
2017-06-26T03:07:37.762Z,1005.0
2017-06-26T03:08:39.541Z,1005.0
2017-06-26T03:09:41.422Z,1005.1
2017-06-26T03:10:43.179Z,1005.1
2017-06-26T03:11:44.958Z,1005.0
2017-06-26T03:12:46.786Z,1005.0
2017-06-26T03:13:48.588Z,1005.0
2017-06-26T03:14:50.349Z,1005.0
2017-06-26T03:15:52.228Z,1005.0
2017-06-26T03:16:53.995Z,1005.0
2017-06-26T03:17:55.786Z,1005.0
2017-06-26T03:18:57.558Z,1005.0
2017-06-26T03:19:59.357Z,1005.1
2017-06-26T03:21:01.049Z,1005.1
2017-06-26T03:22:02.886Z,1005.2
2017-06-26T03:23:04.671Z,1005.2
2017-06-26T03:24:07.639Z,1005.2
2017-06-26T03:25:09.766Z,1005.2
2017-06-26T03:26:11.480Z,1005.2
2017-06-26T03:27:13.619Z,1005.2
2017-06-26T03:28:15.855Z,1005.3
2017-06-26T03:29:17.587Z,1005.2
2017-06-26T03:30:20.420Z,1005.3
2017-06-26T03:31:22.162Z,1005.3
2017-06-26T03:32:24.925Z,1005.3
2017-06-26T03:33:26.705Z,1005.3
2017-06-26T03:34:28.530Z,1005.4
2017-06-26T03:35:30.240Z,1005.4
2017-06-26T03:36:33.067Z,1005.4
2017-06-26T03:37:34.860Z,1005.4
2017-06-26T03:38:36.670Z,1005.4
2017-06-26T03:39:38.463Z,1005.4
2017-06-26T03:40:40.134Z,1005.4
2017-06-26T03:41:41.892Z,1005.4
2017-06-26T03:42:43.736Z,1005.5
2017-06-26T03:43:45.472Z,1005.4
2017-06-26T03:44:47.349Z,1005.5
2017-06-26T03:45:49.441Z,1005.5
2017-06-26T03:46:51.249Z,1005.5
2017-06-26T03:47:53.023Z,1005.5
2017-06-26T03:48:54.869Z,1005.5
2017-06-26T03:49:56.660Z,1005.5
2017-06-26T03:50:58.393Z,1005.5
2017-06-26T03:52:00.188Z,1005.5
2017-06-26T03:53:01.989Z,1005.5
2017-06-26T03:54:03.716Z,1005.5
2017-06-26T03:55:05.590Z,1005.5
2017-06-26T03:56:07.359Z,1005.4
2017-06-26T03:57:09.089Z,1005.5
2017-06-26T03:58:10.846Z,1005.5
2017-06-26T03:59:12.705Z,1005.4
2017-06-26T04:00:14.371Z,1005.5
2017-06-26T04:01:16.163Z,1005.5
2017-06-26T04:02:17.946Z,1005.5
2017-06-26T04:03:19.762Z,1005.5
2017-06-26T04:04:21.770Z,1005.5
2017-06-26T04:05:23.938Z,1005.5
2017-06-26T04:06:26.062Z,1005.5
2017-06-26T04:07:28.219Z,1005.5
2017-06-26T04:08:30.252Z,1005.5
2017-06-26T04:09:32.418Z,1005.5
2017-06-26T04:10:34.399Z,1005.5
2017-06-26T04:11:36.413Z,1005.5
2017-06-26T04:12:38.398Z,1005.5
2017-06-26T04:13:40.365Z,1005.6
2017-06-26T04:14:42.368Z,1005.6
2017-06-26T04:15:44.416Z,1005.7
2017-06-26T04:16:46.346Z,1005.7
2017-06-26T04:17:48.274Z,1005.7
2017-06-26T04:18:50.701Z,1005.7
2017-06-26T04:19:53.732Z,1005.7
2017-06-26T04:20:55.746Z,1005.8
2017-06-26T04:21:58.945Z,1005.7
2017-06-26T04:23:01.276Z,1005.7
2017-06-26T04:24:03.530Z,1005.7
2017-06-26T04:25:06.204Z,1005.7
2017-06-26T04:26:08.798Z,1005.7
2017-06-26T04:27:11.757Z,1005.7
2017-06-26T04:28:13.862Z,1005.7
2017-06-26T04:29:15.939Z,1005.6
2017-06-26T04:30:18.123Z,1005.7
2017-06-26T04:31:20.557Z,1005.7
2017-06-26T04:32:23.060Z,1005.7
2017-06-26T04:33:25.675Z,1005.7
2017-06-26T04:34:28.133Z,1005.7
2017-06-26T04:35:30.165Z,1005.8
2017-06-26T04:36:32.361Z,1005.8
2017-06-26T04:37:34.766Z,1005.7
2017-06-26T04:38:38.580Z,1005.7
2017-06-26T04:39:41.348Z,1005.8
2017-06-26T04:40:44.012Z,1005.8
2017-06-26T04:41:46.280Z,1005.8
2017-06-26T04:42:48.523Z,1005.8
2017-06-26T04:43:50.679Z,1005.8
2017-06-26T04:44:53.076Z,1005.9
2017-06-26T04:45:55.294Z,1005.9
2017-06-26T04:46:57.519Z,1005.9
2017-06-26T04:47:59.739Z,1005.9
2017-06-26T04:54:01.827Z,1005.8
2017-06-26T04:55:03.749Z,1005.7
2017-06-26T04:56:05.659Z,1005.8
2017-06-26T04:57:07.554Z,1005.7
2017-06-26T04:58:09.651Z,1005.8
2017-06-26T04:59:11.935Z,1005.8
2017-06-26T05:00:15.864Z,1005.8
2017-06-26T05:01:18.418Z,1005.8
2017-06-26T05:02:20.642Z,1005.7
2017-06-26T05:03:24.541Z,1005.8
2017-06-26T05:04:29.026Z,1005.8
2017-06-26T05:05:31.109Z,1005.7
2017-06-26T05:06:33.346Z,1005.7
2017-06-26T05:07:35.459Z,1005.8
2017-06-26T05:08:37.747Z,1005.8
2017-06-26T05:09:39.813Z,1005.8
2017-06-26T05:10:41.998Z,1005.8
2017-06-26T05:11:44.103Z,1005.8
2017-06-26T05:12:46.144Z,1005.9
2017-06-26T05:13:48.226Z,1005.8
2017-06-26T05:14:50.382Z,1005.8
2017-06-26T05:15:52.876Z,1005.8
2017-06-26T05:16:55.265Z,1005.8
2017-06-26T05:17:57.334Z,1005.8
2017-06-26T05:18:59.549Z,1005.9
2017-06-26T05:20:01.663Z,1005.9
2017-06-26T05:21:03.797Z,1005.9
2017-06-26T05:22:06.003Z,1005.9
2017-06-26T05:23:08.242Z,1005.9
2017-06-26T05:24:10.419Z,1005.9
2017-06-26T05:25:12.670Z,1005.9
2017-06-26T05:26:14.932Z,1005.9
2017-06-26T05:27:17.115Z,1006.0
2017-06-26T05:28:19.236Z,1005.9
2017-06-26T05:29:21.471Z,1006.0
2017-06-26T05:30:23.629Z,1006.0
2017-06-26T05:31:25.797Z,1006.0
2017-06-26T05:32:27.973Z,1005.9
2017-06-26T05:33:30.024Z,1005.9
2017-06-26T05:34:32.249Z,1005.9
2017-06-26T05:35:34.246Z,1006.0
2017-06-26T05:36:36.270Z,1006.0
2017-06-26T05:37:38.333Z,1006.1
2017-06-26T05:38:40.337Z,1006.0
2017-06-26T05:39:42.426Z,1006.0
2017-06-26T05:40:44.449Z,1006.0
2017-06-26T05:41:46.527Z,1006.0
2017-06-26T05:42:48.569Z,1006.0
2017-06-26T05:43:50.909Z,1006.1
2017-06-26T05:44:53.113Z,1006.0
2017-06-26T05:45:55.190Z,1006.0
2017-06-26T05:46:57.195Z,1006.1
2017-06-26T05:47:59.364Z,1006.1
2017-06-26T05:49:01.448Z,1006.1
2017-06-26T05:50:03.520Z,1006.1
2017-06-26T05:51:07.538Z,1006.1
2017-06-26T05:52:09.676Z,1006.2
2017-06-26T05:53:12.732Z,1006.1
2017-06-26T05:54:15.002Z,1006.1
2017-06-26T05:55:18.422Z,1006.2
2017-06-26T05:56:20.730Z,1006.2
2017-06-26T05:57:23.100Z,1006.2
2017-06-26T05:58:25.239Z,1006.2
2017-06-26T05:59:27.275Z,1006.2
2017-06-26T06:00:29.448Z,1006.2
2017-06-26T06:01:31.416Z,1006.2
2017-06-26T06:02:33.485Z,1006.2
2017-06-26T06:03:35.510Z,1006.2
2017-06-26T06:04:37.640Z,1006.2
2017-06-26T06:05:39.695Z,1006.2
2017-06-26T06:06:42.242Z,1006.3
2017-06-26T06:07:44.171Z,1006.2
2017-06-26T06:08:46.399Z,1006.3
2017-06-26T06:09:48.471Z,1006.3
2017-06-26T06:10:50.557Z,1006.3
2017-06-26T06:11:52.601Z,1006.3
2017-06-26T06:12:54.972Z,1006.4
2017-06-26T06:13:56.859Z,1006.4
2017-06-26T06:14:58.976Z,1006.4
2017-06-26T06:16:02.060Z,1006.4
2017-06-26T06:17:04.066Z,1006.4
2017-06-26T06:18:06.339Z,1006.4
2017-06-26T06:19:08.836Z,1006.4
2017-06-26T06:20:10.788Z,1006.3
2017-06-26T06:21:12.719Z,1006.3
2017-06-26T06:22:14.670Z,1006.3
2017-06-26T06:23:16.780Z,1006.4
2017-06-26T06:24:18.810Z,1006.4
2017-06-26T06:25:20.807Z,1006.4
2017-06-26T06:26:22.785Z,1006.5
2017-06-26T06:27:24.804Z,1006.5
2017-06-26T06:28:26.728Z,1006.5
2017-06-26T06:29:28.738Z,1006.5
2017-06-26T06:30:30.704Z,1006.6
2017-06-26T06:31:32.726Z,1006.5
2017-06-26T06:32:34.652Z,1006.5
2017-06-26T06:33:37.718Z,1006.5
2017-06-26T06:34:39.653Z,1006.6
2017-06-26T06:35:41.771Z,1006.6
2017-06-26T06:36:43.708Z,1006.6
2017-06-26T06:37:45.736Z,1006.6
2017-06-26T06:38:47.776Z,1006.6
2017-06-26T06:39:49.778Z,1006.6
2017-06-26T06:40:51.744Z,1006.6
2017-06-26T06:41:53.897Z,1006.6
2017-06-26T06:42:55.907Z,1006.6
2017-06-26T06:43:58.129Z,1006.6
2017-06-26T06:45:00.308Z,1006.6
2017-06-26T06:46:02.468Z,1006.6
2017-06-26T06:47:04.599Z,1006.6
2017-06-26T06:48:07.101Z,1006.6
2017-06-26T06:49:09.187Z,1006.6
2017-06-26T06:50:11.273Z,1006.7
2017-06-26T06:51:13.319Z,1006.6
2017-06-26T06:52:15.314Z,1006.6
2017-06-26T06:53:17.384Z,1006.6
2017-06-26T06:54:19.400Z,1006.6
2017-06-26T06:55:21.351Z,1006.6
2017-06-26T06:56:24.454Z,1006.6
2017-06-26T06:57:26.496Z,1006.7
2017-06-26T06:58:28.553Z,1006.6
2017-06-26T06:59:30.547Z,1006.6
2017-06-26T07:00:32.690Z,1006.6
2017-06-26T07:01:34.690Z,1006.6
2017-06-26T07:02:36.775Z,1006.6
2017-06-26T07:03:38.804Z,1006.6
2017-06-26T07:04:40.953Z,1006.6
2017-06-26T07:05:43.023Z,1006.6
2017-06-26T07:06:44.887Z,1006.6
2017-06-26T07:07:47.011Z,1006.6
2017-06-26T07:08:49.068Z,1006.6
2017-06-26T07:09:51.167Z,1006.6
2017-06-26T07:10:53.299Z,1006.6
2017-06-26T07:11:55.373Z,1006.6
2017-06-26T07:12:57.493Z,1006.7
2017-06-26T07:14:00.140Z,1006.6
2017-06-26T07:15:02.549Z,1006.7
2017-06-26T07:16:04.466Z,1006.6
2017-06-26T07:17:06.658Z,1006.6
2017-06-26T07:18:08.562Z,1006.6
2017-06-26T07:19:10.520Z,1006.6
2017-06-26T07:20:12.567Z,1006.6
2017-06-26T07:21:14.574Z,1006.6
2017-06-26T07:22:16.603Z,1006.6
2017-06-26T07:23:18.661Z,1006.6
2017-06-26T07:24:20.684Z,1006.6
2017-06-26T07:25:22.764Z,1006.7
2017-06-26T07:26:24.708Z,1006.7
2017-06-26T07:27:26.665Z,1006.7
2017-06-26T07:28:28.630Z,1006.7
2017-06-26T07:29:30.706Z,1006.7
2017-06-26T07:30:32.670Z,1006.7
2017-06-26T07:31:34.582Z,1006.7
2017-06-26T07:32:36.618Z,1006.7
2017-06-26T07:33:38.587Z,1006.7
2017-06-26T07:34:40.550Z,1006.7
2017-06-26T07:52:49.747Z,1006.9
2017-06-26T07:53:52.572Z,1006.9
2017-06-26T07:54:54.312Z,1007.0
2017-06-26T07:55:57.119Z,1006.9
2017-06-26T07:56:59.040Z,1006.9
2017-06-26T07:58:00.888Z,1007.0
2017-06-26T07:59:02.673Z,1006.9
2017-06-26T08:00:04.524Z,1006.9
2017-06-26T08:01:06.181Z,1007.0
2017-06-26T08:02:08.024Z,1006.9
2017-06-26T08:03:09.751Z,1007.0
2017-06-26T08:04:11.563Z,1007.0
2017-06-26T08:05:13.221Z,1007.0
2017-06-26T08:06:15.070Z,1007.0
2017-06-26T08:07:16.813Z,1007.1
2017-06-26T08:08:18.642Z,1007.1
2017-06-26T08:09:20.390Z,1007.1
2017-06-26T08:10:22.239Z,1007.1
2017-06-26T08:11:23.989Z,1007.1
2017-06-26T08:12:25.815Z,1007.1
2017-06-26T08:13:27.562Z,1007.1
2017-06-26T08:14:29.351Z,1007.1
2017-06-26T08:15:31.214Z,1007.2
2017-06-26T08:16:33.036Z,1007.1
2017-06-26T08:17:34.782Z,1007.1
2017-06-26T08:18:36.558Z,1007.2
2017-06-26T08:19:38.317Z,1007.1
2017-06-26T08:20:40.187Z,1007.0
2017-06-26T08:21:41.847Z,1007.0
2017-06-26T08:22:43.620Z,1007.1
2017-06-26T08:23:45.378Z,1007.0
2017-06-26T08:24:47.223Z,1007.1
2017-06-26T08:25:48.981Z,1007.1
2017-06-26T08:26:50.814Z,1007.1
2017-06-26T08:27:52.505Z,1007.1
2017-06-26T08:28:54.611Z,1007.1
2017-06-26T08:29:56.544Z,1007.2
2017-06-26T08:30:58.419Z,1007.2
2017-06-26T08:32:00.286Z,1007.2
2017-06-26T08:33:02.040Z,1007.2
2017-06-26T08:34:03.765Z,1007.2
2017-06-26T08:35:05.713Z,1007.2
2017-06-26T08:36:07.401Z,1007.3
2017-06-26T08:37:09.216Z,1007.3
2017-06-26T08:38:10.977Z,1007.3
2017-06-26T08:39:12.739Z,1007.3
2017-06-26T08:40:14.401Z,1007.3
2017-06-26T08:41:16.194Z,1007.3
2017-06-26T08:42:17.948Z,1007.4
2017-06-26T08:43:19.804Z,1007.4
2017-06-26T08:44:21.529Z,1007.3
2017-06-26T08:45:23.281Z,1007.4
2017-06-26T08:46:25.036Z,1007.3
2017-06-26T08:47:26.911Z,1007.3
2017-06-26T08:48:28.639Z,1007.3
2017-06-26T08:49:30.499Z,1007.3
2017-06-26T08:50:32.238Z,1007.3
2017-06-26T08:51:34.080Z,1007.3
2017-06-26T08:52:35.817Z,1007.3
2017-06-26T08:53:37.585Z,1007.3
2017-06-26T08:54:39.325Z,1007.3
2017-06-26T08:55:41.216Z,1007.4
2017-06-26T08:56:43.031Z,1007.3
2017-06-26T08:57:44.810Z,1007.4
2017-06-26T08:58:46.539Z,1007.3
2017-06-26T08:59:48.374Z,1007.4
2017-06-26T09:00:50.500Z,1007.4
2017-06-26T09:01:52.204Z,1007.4
2017-06-26T09:02:53.950Z,1007.4
2017-06-26T09:03:55.861Z,1007.3
2017-06-26T09:04:57.534Z,1007.4
2017-06-26T09:05:59.365Z,1007.4
2017-06-26T09:07:01.141Z,1007.4
2017-06-26T09:08:02.903Z,1007.4
2017-06-26T09:09:04.741Z,1007.4
2017-06-26T09:10:06.592Z,1007.3
2017-06-26T09:11:08.259Z,1007.4
2017-06-26T09:12:10.109Z,1007.4
2017-06-26T09:13:11.855Z,1007.4
2017-06-26T09:14:13.579Z,1007.4
2017-06-26T09:15:15.320Z,1007.4
2017-06-26T09:16:17.190Z,1007.3
2017-06-26T09:17:18.877Z,1007.4
2017-06-26T09:18:20.654Z,1007.3
2017-06-26T09:19:22.418Z,1007.4
2017-06-26T09:20:24.296Z,1007.4
2017-06-26T09:21:26.057Z,1007.4
2017-06-26T09:22:28.046Z,1007.3
2017-06-26T09:23:29.912Z,1007.4
2017-06-26T09:24:31.742Z,1007.4
2017-06-26T09:25:33.521Z,1007.4
2017-06-26T09:26:35.358Z,1007.4
2017-06-26T09:27:37.051Z,1007.4
2017-06-26T09:28:38.853Z,1007.3
2017-06-26T09:29:40.640Z,1007.3
2017-06-26T09:30:42.404Z,1007.4
2017-06-26T09:31:48.060Z,1007.4
2017-06-26T09:32:49.816Z,1007.4
2017-06-26T09:33:51.644Z,1007.4
2017-06-26T09:34:53.441Z,1007.4
2017-06-26T09:35:55.201Z,1007.4
2017-06-26T09:36:57.063Z,1007.4
2017-06-26T09:37:58.851Z,1007.5
2017-06-26T09:39:00.632Z,1007.4
2017-06-26T09:40:02.419Z,1007.5
2017-06-26T09:41:04.145Z,1007.4
2017-06-26T09:42:06.235Z,1007.3
2017-06-26T09:43:07.950Z,1007.3
2017-06-26T09:44:09.694Z,1007.4
2017-06-26T09:45:11.527Z,1007.4
2017-06-26T09:46:13.297Z,1007.4
2017-06-26T09:47:15.111Z,1007.4
2017-06-26T09:48:16.798Z,1007.4
2017-06-26T09:49:18.551Z,1007.4
2017-06-26T09:50:20.213Z,1007.5
2017-06-26T09:51:22.031Z,1007.4
2017-06-26T09:52:23.766Z,1007.4
2017-06-26T09:53:25.592Z,1007.4
2017-06-26T09:54:27.336Z,1007.4
2017-06-26T09:55:29.034Z,1007.4
2017-06-26T09:56:31.229Z,1007.4
2017-06-26T09:57:33.408Z,1007.4
2017-06-26T09:58:35.156Z,1007.4
2017-06-26T09:59:37.340Z,1007.5
2017-06-26T10:00:39.121Z,1007.4
2017-06-26T10:01:40.953Z,1007.5
2017-06-26T10:02:42.765Z,1007.4
2017-06-26T10:03:44.597Z,1007.4
2017-06-26T10:04:46.344Z,1007.4
2017-06-26T10:05:48.115Z,1007.4
2017-06-26T10:06:50.253Z,1007.5
2017-06-26T10:07:52.020Z,1007.4
2017-06-26T10:08:53.763Z,1007.5
2017-06-26T10:09:55.624Z,1007.5
2017-06-26T10:10:57.386Z,1007.5
2017-06-26T10:11:59.282Z,1007.5
2017-06-26T10:13:00.945Z,1007.5
2017-06-26T10:14:02.687Z,1007.5
2017-06-26T10:15:04.338Z,1007.5
2017-06-26T10:16:06.199Z,1007.5
2017-06-26T10:17:08.074Z,1007.5
2017-06-26T10:18:09.960Z,1007.6
2017-06-26T10:19:11.624Z,1007.6
2017-06-26T10:20:13.422Z,1007.6
2017-06-26T10:21:15.167Z,1007.6
2017-06-26T10:22:16.964Z,1007.5
2017-06-26T10:23:18.801Z,1007.5
2017-06-26T10:24:20.641Z,1007.6
2017-06-26T10:25:22.315Z,1007.5
2017-06-26T10:26:24.136Z,1007.5
2017-06-26T10:27:25.923Z,1007.5
2017-06-26T10:28:27.710Z,1007.5
2017-06-26T10:29:29.489Z,1007.5
2017-06-26T10:30:31.316Z,1007.5
2017-06-26T10:31:33.004Z,1007.5
2017-06-26T10:32:34.864Z,1007.5
2017-06-26T10:33:36.621Z,1007.6
2017-06-26T10:34:38.428Z,1007.6
2017-06-26T10:35:40.187Z,1007.6
2017-06-26T10:36:41.973Z,1007.6
2017-06-26T10:37:43.717Z,1007.6
2017-06-26T10:38:45.587Z,1007.6
2017-06-26T10:39:47.720Z,1007.6
2017-06-26T10:40:49.589Z,1007.7
2017-06-26T10:41:51.353Z,1007.7
2017-06-26T10:42:53.177Z,1007.6
2017-06-26T10:43:55.026Z,1007.6
2017-06-26T10:44:56.905Z,1007.7
2017-06-26T10:45:58.608Z,1007.7
2017-06-26T10:47:00.401Z,1007.7
2017-06-26T10:48:02.198Z,1007.8
2017-06-26T10:49:04.045Z,1007.7
2017-06-26T10:50:06.100Z,1007.8
2017-06-26T10:51:08.147Z,1007.7
2017-06-26T10:52:09.893Z,1007.7
2017-06-26T10:53:11.727Z,1007.7
2017-06-26T10:54:13.495Z,1007.7
2017-06-26T10:55:15.351Z,1007.7
2017-06-26T10:56:17.035Z,1007.6
2017-06-26T10:57:18.803Z,1007.6
2017-06-26T10:58:20.535Z,1007.5
2017-06-26T10:59:22.364Z,1007.6
2017-06-26T11:00:24.113Z,1007.6
2017-06-26T11:01:25.995Z,1007.5
2017-06-26T11:02:27.717Z,1007.6
2017-06-26T11:03:29.526Z,1007.6
2017-06-26T11:04:31.339Z,1007.6
2017-06-26T11:05:33.164Z,1007.6
2017-06-26T11:06:34.848Z,1007.6
2017-06-26T11:07:36.662Z,1007.6
2017-06-26T11:08:38.322Z,1007.6
2017-06-26T11:09:40.099Z,1007.6
2017-06-26T11:10:41.850Z,1007.6
2017-06-26T11:11:43.662Z,1007.6
2017-06-26T11:12:45.474Z,1007.6
2017-06-26T11:13:47.692Z,1007.6
2017-06-26T11:14:49.438Z,1007.6
2017-06-26T11:15:51.359Z,1007.6
2017-06-26T11:16:53.140Z,1007.5
2017-06-26T11:17:54.966Z,1007.6
2017-06-26T11:18:56.810Z,1007.6
2017-06-26T11:19:58.588Z,1007.6
2017-06-26T11:21:00.344Z,1007.6
2017-06-26T11:22:02.192Z,1007.7
2017-06-26T11:23:03.942Z,1007.7
2017-06-26T11:24:05.767Z,1007.7
2017-06-26T11:25:07.426Z,1007.7
2017-06-26T11:26:09.271Z,1007.7
2017-06-26T11:27:11.100Z,1007.7
2017-06-26T11:28:12.947Z,1007.7
2017-06-26T11:29:14.828Z,1007.7
2017-06-26T11:30:16.674Z,1007.8
2017-06-26T11:31:18.381Z,1007.7
2017-06-26T11:32:20.172Z,1007.8
2017-06-26T11:33:22.845Z,1007.8
2017-06-26T11:34:24.731Z,1007.8
2017-06-26T11:35:26.507Z,1007.7
2017-06-26T11:36:28.349Z,1007.8
2017-06-26T11:37:30.103Z,1007.8
2017-06-26T11:38:31.957Z,1007.7
2017-06-26T11:39:33.969Z,1007.7
2017-06-26T11:40:35.791Z,1007.7
2017-06-26T11:41:37.593Z,1007.8
2017-06-26T11:42:39.459Z,1007.8
2017-06-26T11:43:41.234Z,1007.8
2017-06-26T11:44:42.993Z,1007.8
2017-06-26T11:45:44.793Z,1007.8
2017-06-26T11:46:46.643Z,1007.7
2017-06-26T11:47:48.400Z,1007.8
2017-06-26T11:48:50.258Z,1007.8
2017-06-26T11:49:52.057Z,1007.7
2017-06-26T11:50:55.108Z,1007.7
2017-06-26T11:51:56.843Z,1007.7
2017-06-26T11:52:58.650Z,1007.8
2017-06-26T11:54:00.407Z,1007.8
2017-06-26T11:55:02.272Z,1007.8
2017-06-26T11:56:04.472Z,1007.8
2017-06-26T11:57:06.303Z,1007.8
2017-06-26T11:58:08.081Z,1007.8
2017-06-26T11:59:10.021Z,1007.8
2017-06-26T12:00:11.976Z,1007.8
2017-06-26T12:01:13.718Z,1007.8
2017-06-26T12:02:15.543Z,1007.8
2017-06-26T12:03:18.401Z,1007.8
2017-06-26T12:04:20.121Z,1007.8
2017-06-26T12:05:22.004Z,1007.9
2017-06-26T12:06:23.779Z,1007.8
2017-06-26T12:07:25.636Z,1007.9
2017-06-26T12:08:27.387Z,1007.8
2017-06-26T12:09:29.206Z,1007.8
2017-06-26T12:10:30.944Z,1007.8
2017-06-26T12:11:32.733Z,1007.9
2017-06-26T12:12:34.525Z,1007.9
2017-06-26T12:13:36.331Z,1007.9
2017-06-26T12:14:38.150Z,1007.9
2017-06-26T12:15:40.029Z,1007.8
2017-06-26T12:16:41.789Z,1007.7
2017-06-26T12:17:43.578Z,1007.8
2017-06-26T12:18:45.322Z,1007.8
2017-06-26T12:19:47.145Z,1007.7
2017-06-26T12:20:48.852Z,1007.8
2017-06-26T12:21:50.770Z,1007.8
2017-06-26T12:22:52.515Z,1007.8
2017-06-26T12:23:54.239Z,1007.8
2017-06-26T12:24:56.009Z,1007.7
2017-06-26T12:25:58.038Z,1007.8
2017-06-26T12:26:59.869Z,1007.8
2017-06-26T12:28:01.762Z,1007.8
2017-06-26T12:29:03.590Z,1007.8
2017-06-26T12:30:05.373Z,1007.8
2017-06-26T12:31:07.295Z,1007.8
2017-06-26T12:32:09.106Z,1007.8
2017-06-26T12:33:10.984Z,1007.7
2017-06-26T12:34:12.811Z,1007.8
2017-06-26T12:35:14.514Z,1007.8
2017-06-26T12:36:27.989Z,1007.8
2017-06-26T12:37:29.710Z,1007.8
2017-06-26T12:38:32.584Z,1007.8
2017-06-26T12:39:34.290Z,1007.9
2017-06-26T12:40:38.027Z,1007.9
2017-06-26T12:41:39.851Z,1007.9
2017-06-26T12:42:54.651Z,1007.9
2017-06-26T12:43:56.360Z,1007.9
2017-06-26T12:45:00.260Z,1007.8
2017-06-26T12:46:02.051Z,1007.8
2017-06-26T12:47:08.405Z,1007.8
2017-06-26T12:48:10.283Z,1007.8
2017-06-26T12:49:12.982Z,1007.8
2017-06-26T12:50:15.150Z,1007.9
2017-06-26T12:51:22.902Z,1007.8
2017-06-26T12:52:24.860Z,1007.8
2017-06-26T12:53:27.692Z,1007.8
2017-06-26T12:54:29.432Z,1007.8
2017-06-26T12:55:33.273Z,1007.8
2017-06-26T12:56:35.105Z,1007.8
2017-06-26T12:57:37.064Z,1007.8
2017-06-26T12:58:38.707Z,1007.8
2017-06-26T12:59:40.432Z,1007.8
2017-06-26T13:00:42.269Z,1007.9
2017-06-26T13:01:46.095Z,1007.8
2017-06-26T13:02:47.921Z,1007.8
2017-06-26T13:03:51.642Z,1007.8
2017-06-26T13:04:53.438Z,1007.7
2017-06-26T13:05:56.264Z,1007.8
2017-06-26T13:06:58.379Z,1007.8
2017-06-26T13:08:00.487Z,1007.8
2017-06-26T13:09:02.674Z,1007.9
2017-06-26T13:10:04.907Z,1007.9
2017-06-26T13:11:06.922Z,1007.9
2017-06-26T13:12:08.697Z,1007.8
2017-06-26T13:13:10.451Z,1007.9
2017-06-26T13:14:18.090Z,1007.8
2017-06-26T13:15:19.790Z,1007.8
2017-06-26T13:16:21.577Z,1007.8